createdAt,value
2023-03-21T00:02:08.746Z,329.00
2023-03-21T00:04:50.461Z,351.63
2023-03-21T00:07:19.802Z,316.05
2023-03-21T00:09:48.188Z,361.80
2023-03-21T00:12:20.958Z,319.85
2023-03-21T00:14:49.278Z,332.45
2023-03-21T00:17:17.910Z,364.73
2023-03-21T00:19:46.240Z,435.90
2023-03-21T00:22:14.555Z,480.00
2023-03-21T00:24:42.944Z,335.75
2023-03-21T00:27:34.541Z,408.52
2023-03-21T00:30:00.996Z,427.95
2023-03-21T00:32:29.467Z,380.65
2023-03-21T00:35:25.791Z,445.00
2023-03-21T00:37:46.185Z,495.30
2023-03-21T00:40:35.270Z,462.77
2023-03-21T00:43:03.604Z,354.80
2023-03-21T00:45:33.450Z,326.20
2023-03-21T00:48:01.978Z,371.63
2023-03-21T00:50:30.358Z,433.33
2023-03-21T00:52:58.779Z,510.65
2023-03-21T00:55:27.167Z,421.92
2023-03-21T00:58:01.489Z,510.75
2023-03-21T01:00:32.899Z,379.17
2023-03-21T01:03:17.487Z,414.70
2023-03-21T01:06:05.417Z,363.55
2023-03-21T01:08:48.652Z,334.50
2023-03-21T01:11:21.691Z,405.00
2023-03-21T01:14:19.099Z,341.73
2023-03-21T01:16:40.271Z,389.58
2023-03-21T01:19:22.182Z,368.40
2023-03-21T01:21:52.770Z,324.33
2023-03-21T01:24:21.101Z,369.77
2023-03-21T01:26:49.569Z,423.02
2023-03-21T01:29:17.963Z,369.05
2023-03-21T01:31:48.428Z,519.75
2023-03-21T01:34:16.822Z,565.03
2023-03-21T01:36:45.333Z,451.33
2023-03-21T01:39:13.738Z,352.52
2023-03-21T01:41:44.582Z,501.88
2023-03-21T01:44:17.300Z,365.50
2023-03-21T01:46:57.421Z,349.48
2023-03-21T01:49:35.758Z,374.10
2023-03-21T01:52:13.173Z,395.73
2023-03-21T01:54:44.845Z,547.67
2023-03-21T01:57:16.968Z,346.50
2023-03-21T01:59:48.160Z,365.40
2023-03-21T02:02:23.099Z,354.50
2023-03-21T02:04:55.872Z,364.75
2023-03-21T02:07:28.788Z,423.50
2023-03-21T02:09:58.187Z,382.90
2023-03-21T02:12:27.183Z,544.63
2023-03-21T02:14:56.781Z,392.83
2023-03-21T02:17:32.470Z,388.20
2023-03-21T02:20:22.951Z,376.73
2023-03-21T02:23:28.923Z,342.00
2023-03-21T02:26:41.993Z,524.88
2023-03-21T02:29:26.955Z,468.92
2023-03-21T02:32:16.504Z,338.10
2023-03-21T02:35:06.481Z,419.90
2023-03-21T02:37:38.820Z,368.33
2023-03-21T02:40:13.631Z,358.52
2023-03-21T02:42:59.398Z,559.30
2023-03-21T02:45:31.568Z,395.45
2023-03-21T02:48:04.441Z,438.50
2023-03-21T02:50:37.399Z,380.05
2023-03-21T02:53:09.651Z,380.38
2023-03-21T02:55:38.772Z,385.63
2023-03-21T02:58:13.192Z,376.88
2023-03-21T03:00:43.396Z,380.98
2023-03-21T03:03:18.214Z,403.33
2023-03-21T03:05:56.952Z,569.13
2023-03-21T03:08:47.583Z,491.65
2023-03-21T03:11:28.792Z,348.55
2023-03-21T03:14:35.746Z,396.92
2023-03-21T03:17:12.256Z,343.88
2023-03-21T03:19:51.094Z,480.98
2023-03-21T03:22:24.271Z,370.08
2023-03-21T03:25:02.778Z,411.63
2023-03-21T03:27:36.778Z,399.73
2023-03-21T03:30:07.814Z,387.70
2023-03-21T03:32:38.967Z,402.77
2023-03-21T03:35:08.562Z,408.15
2023-03-21T03:37:38.109Z,404.98
2023-03-21T03:40:10.507Z,409.52
2023-03-21T03:42:42.044Z,334.02
2023-03-21T03:45:11.708Z,459.45
2023-03-21T03:47:55.993Z,539.08
2023-03-21T03:52:59.796Z,358.00
2023-03-21T03:55:34.407Z,475.00
2023-03-21T04:00:34.975Z,429.10
2023-03-21T04:03:03.704Z,540.70
2023-03-21T04:05:32.491Z,490.73
2023-03-21T04:08:00.895Z,464.08
2023-03-21T04:10:30.663Z,422.30
2023-03-21T04:12:58.970Z,483.92
2023-03-21T04:15:27.368Z,575.60
2023-03-21T04:17:55.878Z,493.45
2023-03-21T04:20:43.298Z,492.25
2023-03-21T04:23:12.796Z,467.30
2023-03-21T04:25:55.585Z,422.90
2023-03-21T04:28:24.515Z,400.40
2023-03-21T04:31:02.471Z,540.10
2023-03-21T04:33:38.405Z,417.90
2023-03-21T04:36:09.518Z,496.48
2023-03-21T04:38:39.063Z,451.88
2023-03-21T04:41:09.099Z,472.70
2023-03-21T04:43:37.660Z,487.33
2023-03-21T04:46:07.365Z,501.70
2023-03-21T04:48:35.839Z,516.20
2023-03-21T04:51:04.592Z,539.38
2023-03-21T04:53:32.960Z,506.52
2023-03-21T04:56:02.512Z,545.13
2023-03-21T04:58:32.225Z,518.45
2023-03-21T05:01:02.485Z,501.92
2023-03-21T05:03:34.427Z,510.58
2023-03-21T05:06:03.077Z,501.73
2023-03-21T05:08:31.394Z,509.05
2023-03-21T05:10:59.738Z,494.27
2023-03-21T05:13:28.212Z,556.38
2023-03-21T05:15:57.992Z,513.38
2023-03-21T05:18:26.510Z,578.28
2023-03-21T05:20:59.882Z,481.63
2023-03-21T05:23:31.523Z,495.02
2023-03-21T05:26:02.926Z,492.83
2023-03-21T05:28:31.790Z,540.38
2023-03-21T05:31:04.130Z,468.38
2023-03-21T05:33:32.856Z,567.33
2023-03-21T05:36:01.577Z,512.58
2023-03-21T05:38:30.565Z,484.45
2023-03-21T05:41:03.324Z,481.30
2023-03-21T05:43:31.901Z,473.85
2023-03-21T05:46:01.836Z,490.27
2023-03-21T05:48:30.481Z,530.70
2023-03-21T05:50:58.954Z,473.02
2023-03-21T05:53:27.537Z,538.28
2023-03-21T05:55:56.105Z,484.60
2023-03-21T05:58:24.573Z,500.65
2023-03-21T06:00:52.925Z,510.77
2023-03-21T06:03:22.756Z,533.67
2023-03-21T06:05:51.177Z,519.00
2023-03-21T06:08:20.297Z,491.52
2023-03-21T06:10:48.981Z,588.58
2023-03-21T06:13:17.360Z,461.65
2023-03-21T06:15:45.925Z,421.33
2023-03-21T06:18:14.391Z,508.23
2023-03-21T06:20:44.180Z,471.60
2023-03-21T06:23:12.594Z,459.50
2023-03-21T06:25:41.147Z,389.63
2023-03-21T06:28:09.638Z,467.20
2023-03-21T06:30:38.114Z,456.10
2023-03-21T06:33:06.554Z,415.17
2023-03-21T06:35:35.140Z,441.85
2023-03-21T06:38:04.979Z,618.88
2023-03-21T06:40:33.431Z,421.83
2023-03-21T06:43:01.793Z,417.88
2023-03-21T06:45:30.325Z,496.13
2023-03-21T06:47:58.806Z,434.58
2023-03-21T06:50:27.312Z,547.05
2023-03-21T06:52:57.471Z,377.80
2023-03-21T06:55:28.865Z,406.70
2023-03-21T06:57:58.290Z,399.38
2023-03-21T07:00:27.219Z,419.95
2023-03-21T07:02:55.625Z,446.15
2023-03-21T07:05:24.093Z,327.63
2023-03-21T07:07:52.530Z,349.90
2023-03-21T07:10:21.161Z,428.63
2023-03-21T07:12:50.963Z,336.55
2023-03-21T07:15:19.432Z,338.88
2023-03-21T07:17:47.920Z,409.20
2023-03-21T07:20:16.323Z,357.10
2023-03-21T07:22:45.024Z,339.13
2023-03-21T07:25:13.654Z,383.77
2023-03-21T07:27:42.247Z,505.38
2023-03-21T07:30:13.771Z,379.35
2023-03-21T07:32:42.545Z,419.42
2023-03-21T07:35:13.399Z,382.67
2023-03-21T07:37:42.610Z,423.67
2023-03-21T07:40:13.254Z,426.23
2023-03-21T07:42:42.529Z,640.63
2023-03-21T07:45:16.454Z,477.15
2023-03-21T07:47:46.537Z,457.00
2023-03-21T07:50:15.194Z,452.48
2023-03-21T07:52:43.571Z,461.65
2023-03-21T07:55:12.855Z,511.95
2023-03-21T07:57:41.408Z,485.27
2023-03-21T08:00:13.672Z,486.45
2023-03-21T08:02:42.152Z,454.77
2023-03-21T08:05:12.055Z,537.53
2023-03-21T08:07:40.582Z,439.00
2023-03-21T08:10:11.606Z,505.58
2023-03-21T08:12:40.232Z,545.58
2023-03-21T08:15:09.596Z,433.40
2023-03-21T08:17:39.938Z,493.55
2023-03-21T08:20:12.078Z,672.42
2023-03-21T08:22:40.643Z,495.52
2023-03-21T08:25:13.157Z,586.75
2023-03-21T08:27:42.031Z,486.70
2023-03-21T08:30:12.256Z,460.88
2023-03-21T08:32:42.649Z,515.78
2023-03-21T08:35:12.558Z,650.97
2023-03-21T08:37:41.629Z,463.35
2023-03-21T08:40:13.387Z,499.13
2023-03-21T08:42:42.377Z,683.80
2023-03-21T08:45:11.759Z,510.90
2023-03-21T08:47:41.709Z,451.95
2023-03-21T08:50:14.226Z,461.92
2023-03-21T08:52:42.702Z,431.40
2023-03-21T08:55:11.772Z,412.45
2023-03-21T08:57:40.246Z,482.95
2023-03-21T09:00:14.619Z,407.85
2023-03-21T09:05:13.485Z,543.33
2023-03-21T09:07:42.564Z,298.38
2023-03-21T09:10:22.173Z,334.10
2023-03-21T09:12:52.117Z,326.77
2023-03-21T09:15:21.838Z,369.17
2023-03-21T09:17:53.269Z,406.92
2023-03-21T09:20:31.184Z,382.58
2023-03-21T09:23:01.721Z,265.75
2023-03-21T09:25:30.992Z,321.77
2023-03-21T09:28:00.518Z,268.85
2023-03-21T09:30:30.148Z,296.30
2023-03-21T09:33:00.685Z,366.67
2023-03-21T09:35:29.283Z,330.73
2023-03-21T09:37:58.992Z,298.40
2023-03-21T09:40:41.448Z,323.10
2023-03-21T09:43:21.895Z,393.67
2023-03-21T09:45:53.827Z,413.02
2023-03-21T09:48:31.282Z,262.60
2023-03-21T09:51:01.167Z,294.80
2023-03-21T09:53:32.810Z,261.67
2023-03-21T09:56:02.181Z,213.40
2023-03-21T09:58:33.626Z,327.75
2023-03-21T10:01:08.789Z,227.65
2023-03-21T10:03:39.984Z,182.05
2023-03-21T10:06:15.358Z,210.52
2023-03-21T10:08:47.472Z,205.35
2023-03-21T10:11:21.607Z,276.90
2023-03-21T10:13:52.424Z,256.83
2023-03-21T10:16:25.747Z,210.15
2023-03-21T10:18:56.316Z,215.35
2023-03-21T10:21:56.586Z,272.10
2023-03-21T10:24:17.728Z,230.63
2023-03-21T10:26:47.171Z,211.88
2023-03-21T10:29:18.514Z,220.20
2023-03-21T10:31:48.579Z,206.07
2023-03-21T10:34:23.683Z,262.80
2023-03-21T10:36:52.081Z,224.32
2023-03-21T10:39:26.493Z,390.33
2023-03-21T10:44:23.351Z,220.65
2023-03-21T10:46:54.224Z,233.43
2023-03-21T10:49:25.494Z,210.43
2023-03-21T10:51:56.642Z,214.73
2023-03-21T10:54:29.479Z,224.38
2023-03-21T10:57:00.642Z,212.40
2023-03-21T10:59:34.649Z,215.32
2023-03-21T11:02:06.003Z,199.25
2023-03-21T11:04:35.953Z,371.50
2023-03-21T11:07:12.090Z,243.07
2023-03-21T11:09:48.231Z,264.52
2023-03-21T11:12:18.852Z,287.35
2023-03-21T11:14:48.312Z,256.15
2023-03-21T11:17:25.103Z,249.63
2023-03-21T11:19:58.296Z,257.25
2023-03-21T11:22:29.800Z,276.45
2023-03-21T11:25:01.313Z,286.65
2023-03-21T11:27:30.660Z,464.40
2023-03-21T11:30:00.353Z,301.75
2023-03-21T11:32:33.739Z,327.95
2023-03-21T11:35:06.740Z,365.00
2023-03-21T11:37:39.214Z,334.45
2023-03-21T11:40:20.458Z,316.80
2023-03-21T11:42:51.816Z,305.80
2023-03-21T11:45:21.770Z,332.75
2023-03-21T11:47:51.617Z,291.75
2023-03-21T11:50:32.234Z,350.67
2023-03-21T11:53:10.789Z,280.63
2023-03-21T11:55:47.473Z,275.10
2023-03-21T11:58:25.351Z,284.92
2023-03-21T12:00:58.398Z,290.33
2023-03-21T12:03:49.177Z,304.13
2023-03-21T12:06:26.623Z,310.98
2023-03-21T12:09:17.066Z,287.85
2023-03-21T12:11:53.809Z,275.00
2023-03-21T12:14:28.833Z,293.55
2023-03-21T12:17:04.804Z,312.65
2023-03-21T12:20:12.710Z,334.35
2023-03-21T12:22:51.273Z,294.23
2023-03-21T12:25:23.187Z,334.38
2023-03-21T12:27:58.468Z,319.55
2023-03-21T12:30:34.488Z,291.15
2023-03-21T12:33:15.526Z,298.35
2023-03-21T12:35:55.900Z,308.98
2023-03-21T12:38:29.849Z,452.60
2023-03-21T12:41:17.655Z,300.42
2023-03-21T12:43:47.917Z,300.63
2023-03-21T12:46:20.531Z,318.67
2023-03-21T12:48:50.680Z,364.13
2023-03-21T12:51:22.228Z,379.23
2023-03-21T12:53:56.982Z,326.23
2023-03-21T12:56:29.684Z,306.13
2023-03-21T12:59:01.311Z,320.75
2023-03-21T13:01:30.386Z,314.98
2023-03-21T13:04:15.349Z,365.20
2023-03-21T13:06:45.303Z,338.02
2023-03-21T13:09:23.322Z,378.13
2023-03-21T13:11:59.242Z,342.73
2023-03-21T13:14:31.873Z,343.35
2023-03-21T13:17:03.473Z,335.00
2023-03-21T13:19:38.417Z,402.15
2023-03-21T13:22:11.407Z,369.88
2023-03-21T13:24:44.978Z,409.65
2023-03-21T13:27:24.830Z,371.42
2023-03-21T13:29:57.666Z,403.23
2023-03-21T13:32:30.979Z,378.05
2023-03-21T13:35:01.422Z,376.50
2023-03-21T13:37:33.772Z,462.48
2023-03-21T13:40:10.000Z,377.65
2023-03-21T13:42:45.609Z,415.70
2023-03-21T13:45:25.829Z,377.70
2023-03-21T13:47:56.775Z,368.15
2023-03-21T13:50:31.323Z,344.17
2023-03-21T13:53:22.978Z,330.17
2023-03-21T13:56:20.947Z,319.98
2023-03-21T13:58:54.575Z,392.92
2023-03-21T14:01:34.382Z,399.85
2023-03-21T14:04:16.613Z,349.42
2023-03-21T14:06:50.848Z,312.95
2023-03-21T14:11:54.630Z,320.38
2023-03-21T14:14:28.038Z,454.52
2023-03-21T14:16:56.469Z,313.42
2023-03-21T14:19:32.072Z,303.13
2023-03-21T14:22:00.730Z,303.70
2023-03-21T14:24:29.104Z,361.02
2023-03-21T14:27:02.728Z,335.83
2023-03-21T14:29:33.950Z,302.33
2023-03-21T14:32:03.916Z,338.55
2023-03-21T14:34:34.442Z,358.95
2023-03-21T14:37:03.257Z,317.38
2023-03-21T14:39:33.665Z,387.75
2023-03-21T14:42:06.710Z,305.90
2023-03-21T14:44:52.850Z,314.25
2023-03-21T14:47:24.057Z,319.35
2023-03-21T14:49:52.903Z,401.98
2023-03-21T14:52:24.795Z,332.10
2023-03-21T14:54:54.423Z,301.35
2023-03-21T14:57:26.176Z,272.45
2023-03-21T14:59:56.264Z,294.15
2023-03-21T15:02:27.062Z,293.70
2023-03-21T15:04:58.374Z,434.33
2023-03-21T15:07:28.937Z,336.38
2023-03-21T15:09:59.282Z,300.90
2023-03-21T15:12:29.042Z,334.15
2023-03-21T15:14:57.748Z,310.23
2023-03-21T15:17:28.366Z,326.85
2023-03-21T15:19:56.802Z,304.60
2023-03-21T15:22:31.649Z,350.52
2023-03-21T15:25:03.016Z,368.05
2023-03-21T15:27:36.127Z,291.25
2023-03-21T15:30:04.962Z,317.65
2023-03-21T15:32:37.448Z,376.48
2023-03-21T15:35:09.020Z,310.30
2023-03-21T15:37:38.827Z,322.10
2023-03-21T15:40:19.246Z,313.30
2023-03-21T15:42:49.617Z,333.00
2023-03-21T15:45:22.294Z,486.95
2023-03-21T15:47:55.938Z,395.75
2023-03-21T15:50:29.490Z,389.65
2023-03-21T15:53:00.026Z,359.35
2023-03-21T15:55:35.389Z,429.20
2023-03-21T15:58:13.077Z,415.70
2023-03-21T16:00:43.886Z,576.42
2023-03-21T16:03:18.259Z,576.33
2023-03-21T16:08:30.077Z,374.00
2023-03-21T16:11:08.668Z,519.55
2023-03-21T16:13:38.686Z,499.83
2023-03-21T16:16:07.923Z,570.50
2023-03-21T16:18:36.368Z,672.05
2023-03-21T16:21:05.216Z,548.95
2023-03-21T16:23:33.700Z,530.95
2023-03-21T16:26:04.235Z,645.58
2023-03-21T16:28:33.089Z,562.83
2023-03-21T16:31:03.178Z,529.60
2023-03-21T16:33:31.824Z,572.65
2023-03-21T16:36:00.922Z,575.70
2023-03-21T16:38:31.654Z,568.38
2023-03-21T16:41:00.951Z,562.35
2023-03-21T16:43:29.668Z,537.28
2023-03-21T16:45:58.546Z,586.10
2023-03-21T16:48:29.026Z,735.03
2023-03-21T16:50:58.608Z,583.17
2023-03-21T16:53:28.542Z,563.22
2023-03-21T16:56:02.731Z,613.63
2023-03-21T16:58:31.625Z,580.30
2023-03-21T17:01:01.232Z,528.38
2023-03-21T17:03:31.826Z,691.05
2023-03-21T17:06:00.890Z,527.75
2023-03-21T17:08:30.484Z,556.03
2023-03-21T17:10:59.877Z,717.90
2023-03-21T17:13:28.328Z,607.38
2023-03-21T17:15:56.786Z,541.47
2023-03-21T17:18:25.367Z,601.78
2023-03-21T17:20:56.025Z,567.55
2023-03-21T17:23:24.696Z,533.92
2023-03-21T17:25:53.242Z,547.50
2023-03-21T17:28:21.693Z,573.60
2023-03-21T17:30:58.741Z,562.78
2023-03-21T17:33:27.256Z,533.15
2023-03-21T17:35:57.661Z,618.83
2023-03-21T17:38:26.252Z,774.97
2023-03-21T17:40:54.943Z,531.08
2023-03-21T17:43:23.795Z,546.10
2023-03-21T17:45:54.152Z,505.15
2023-03-21T17:48:22.848Z,538.47
2023-03-21T17:50:51.483Z,680.17
2023-03-21T17:53:27.156Z,530.70
2023-03-21T17:55:55.970Z,537.28
2023-03-21T17:58:24.378Z,517.83
2023-03-21T18:00:52.937Z,537.53
2023-03-21T18:03:21.314Z,619.92
2023-03-21T18:05:49.790Z,532.92
2023-03-21T18:08:18.456Z,553.70
2023-03-21T18:10:48.405Z,578.80
2023-03-21T18:13:17.113Z,510.70
2023-03-21T18:15:48.335Z,566.80
2023-03-21T18:18:17.127Z,559.13
2023-03-21T18:20:52.084Z,558.25
2023-03-21T18:23:22.782Z,512.30
2023-03-21T18:25:53.540Z,523.45
2023-03-21T18:28:22.724Z,593.45
2023-03-21T18:33:41.386Z,546.40
2023-03-21T18:36:10.855Z,558.03
2023-03-21T18:38:39.959Z,593.15
2023-03-21T18:41:10.177Z,553.35
2023-03-21T18:46:28.513Z,564.65
2023-03-21T18:48:57.301Z,509.65
2023-03-21T18:51:25.770Z,560.40
2023-03-21T18:53:54.600Z,550.15
2023-03-21T18:57:19.619Z,626.13
2023-03-21T18:59:14.132Z,554.65
2023-03-21T19:01:42.815Z,542.10
2023-03-21T19:04:22.943Z,529.58
2023-03-21T19:06:54.047Z,493.85
2023-03-21T19:09:31.375Z,517.65
2023-03-21T19:12:03.200Z,511.77
2023-03-21T19:14:31.669Z,529.60
2023-03-21T19:19:48.857Z,529.30
2023-03-21T19:22:17.872Z,549.55
2023-03-21T19:24:47.210Z,541.38
2023-03-21T19:27:17.065Z,504.77
2023-03-21T19:29:59.720Z,545.92
2023-03-21T19:32:34.500Z,576.58
2023-03-21T19:35:03.388Z,460.98
2023-03-21T19:37:35.204Z,516.25
2023-03-21T19:40:05.364Z,488.80
2023-03-21T19:42:36.339Z,553.45
2023-03-21T20:00:38.275Z,453.42
2023-03-21T20:14:13.932Z,454.10
2023-03-21T20:16:43.712Z,460.35
2023-03-21T20:19:25.605Z,492.17
2023-03-21T20:32:51.984Z,494.83
2023-03-21T20:39:30.013Z,514.00
2023-03-21T20:42:19.808Z,607.33
2023-03-21T20:45:18.532Z,495.20
2023-03-21T20:48:06.829Z,545.58
2023-03-21T20:51:01.121Z,532.22
2023-03-21T20:53:48.045Z,684.22
2023-03-21T20:56:23.908Z,556.95
2023-03-21T20:59:16.704Z,609.03
2023-03-21T21:02:09.990Z,557.17
2023-03-21T21:05:21.595Z,581.75
2023-03-21T21:07:59.930Z,521.45
2023-03-21T21:11:21.118Z,623.60
2023-03-21T21:13:53.765Z,552.80
2023-03-21T21:16:33.803Z,486.65
2023-03-21T21:19:14.864Z,608.67
2023-03-21T21:21:52.311Z,444.08
2023-03-21T21:24:26.466Z,484.83
2023-03-21T21:26:58.959Z,557.38
2023-03-21T21:29:37.513Z,435.05
2023-03-21T21:32:15.454Z,474.50
2023-03-21T21:34:54.090Z,479.52
2023-03-21T21:37:27.281Z,469.40
2023-03-21T21:42:46.166Z,475.80
2023-03-21T21:45:17.100Z,429.00
2023-03-21T21:47:51.274Z,476.60
2023-03-21T21:50:22.264Z,440.55
2023-03-21T21:52:54.704Z,470.73
2023-03-21T21:55:25.358Z,488.80
2023-03-21T21:57:59.537Z,531.08
2023-03-21T22:00:32.083Z,479.48
2023-03-21T22:03:03.675Z,530.55
2023-03-21T22:05:35.821Z,526.95
2023-03-21T22:08:06.423Z,571.78
2023-03-21T22:10:35.461Z,506.92
2023-03-21T22:13:04.077Z,476.88
2023-03-21T22:15:34.275Z,590.35
2023-03-21T22:18:03.184Z,572.80
2023-03-21T22:20:37.597Z,560.15
2023-03-21T22:25:37.736Z,376.25
2023-03-21T22:28:06.741Z,432.83
2023-03-21T22:30:37.210Z,466.65
2023-03-21T22:33:09.680Z,531.95
2023-03-21T22:35:50.410Z,533.33
2023-03-21T22:38:24.462Z,458.92
2023-03-21T22:40:59.540Z,420.35
2023-03-21T22:43:29.148Z,458.85
2023-03-21T22:45:59.197Z,576.38
2023-03-21T22:48:30.253Z,403.83
2023-03-21T22:50:59.159Z,474.20
2023-03-21T22:53:27.642Z,402.48
2023-03-21T22:55:56.354Z,470.00
2023-03-21T22:58:24.898Z,499.00
2023-03-21T23:00:53.416Z,512.72
2023-03-21T23:03:23.152Z,541.38
2023-03-21T23:05:51.708Z,600.00
2023-03-21T23:08:20.021Z,464.35
2023-03-21T23:10:48.397Z,481.13
2023-03-21T23:13:16.864Z,629.10
2023-03-21T23:15:45.273Z,515.80
2023-03-21T23:18:13.658Z,501.63
2023-03-21T23:20:43.340Z,510.50
2023-03-21T23:23:11.678Z,450.98
2023-03-21T23:25:42.430Z,594.15
2023-03-21T23:28:11.073Z,633.80
2023-03-21T23:30:39.683Z,512.35
2023-03-21T23:33:08.131Z,577.35
2023-03-21T23:35:38.189Z,573.30
2023-03-21T23:38:08.205Z,580.65
2023-03-21T23:40:39.346Z,553.10
2023-03-21T23:43:07.828Z,547.92
2023-03-21T23:45:36.193Z,610.80
2023-03-21T23:48:04.684Z,605.97
2023-03-21T23:50:33.735Z,593.47
2023-03-21T23:53:02.031Z,575.13
2023-03-21T23:55:32.078Z,596.55
2023-03-21T23:58:00.506Z,614.80
